Vining, MN (56588)

2:31 AM CST on December 04, 2016 (GMT -0600)
S Eagle Lake LN | | Change Station

Elev 1316 ft 46.16 °N, 95.70 °W | Updated 32 seconds ago

Overcast
Overcast
32.6 °F
Feels Like 33 °F
N
2.0
Wind Variable Wind from North

Today
High -- | Low -- °F
--% Chance of Precip.
Yesterday
High -- | Low -- °F
Precip. -- in
Pressure 29.93 in
Visibility 5.0 miles
Clouds Overcast 800 ft
Windchill 33 °F
Dew Point 31 °F
Humidity 96%
Rainfall 0.00 in
Snow Depth Not available.
7:48 AM 4:36 PM
Waxing Crescent, 21% visible
METAR KADC 040814Z AUTO 16009KT 5SM BR OVC008 M01/M02 A2993 RMK AO2
Pressure 29.93 in
Visibility 5.0 miles
Clouds Overcast 800 ft
Windchill 33 °F
Dew Point 31 °F
Humidity 96%
Rainfall 0.00 in
Snow Depth Not available.
7:48 AM 4:36 PM
Waxing Crescent, 21% visible
METAR KADC 040814Z AUTO 16009KT 5SM BR OVC008 M01/M02 A2993 RMK AO2

10-Day Weather Forecast

Almanac

Astronomy

Dec. 04, 2016 Rise Set
Actual Time
Civil Twilight
Nautical Twilight
Astronomical Twilight
Moon
Length of Visible Light
Length of Day
Tomorrow will be .
, % of the Moon is Illuminated

Today's Extremes

State Highs State Lows

Community

WunderPhotos

Upload Photos

1,955,587 photos uploaded!

WunderBlog® & News

Nearby

Air Quality

  Air Quality AQ Index Pollutant
Not available.

Snow Depth

Station Depth Elevation

Earthquake Activity

City Distance Mag. Time & Date
Minimum magnitude displayed is 2.5.

Coastal Water Temperatures

Place Temperature

Stations

Nearby Weather Stations

Station Location Temp. Windchill Dew Point Humidity Wind Precip. Elev Updated Type
                   

Watches & Warnings

There are currently no watches in effect.